Aviation Digital Data Service (ADDS)

Output produced by METARs form (1655 UTC 20 January 2019)
found at http://www.aviationweather.gov/metar/data/
 
FQBR 201600Z /////KT 9999 SCT009 SCT017 BKN030 26/22 Q1011
TAF FQBR 201000Z 2012/2118 20025G35KT 9999 BKN020 FEW030CB 
     PROB30 
     TEMPO 2012/2018 3000 TSRA SCT010 BKN017 FEW025CB 
     BECMG 2018/2020 20040G50KT TX29/2013Z TN24/2103Z
       
FQCH 201600Z 18021KT 9999 SCT008 BKN015 21/18 Q1019
TAF FQCH 201000Z 2012/2112 16008KT 9999 BKN018 FEW025CB 
     PROB30 
     TEMPO 2012/2018 4000 TSRA SCT010 BKN015 FEW020CB 
     BECMG 2106/2108 23020G40KT TX25/2013Z TN20/2103Z
       
FQIN 201500Z 18022KT 9999 SCT015 BKN020 BKN080 24/20 Q1014
TAF FQIN 201000Z 2012/2112 23025G35KT 9999 SCT015 BKN020 FEW030CB 
     PROB40 
     TEMPO 2012/2018 5000 TSRA SCT010 OVC017 FEW025CB 
     FM201200 14030G40KT 3000 SHRA SCT008 OVC015 FEW020CB TX27/2013Z TN25/2103Z
       
FQLC 201600Z 23004KT 9999 BKN015 FEW020CB BKN070 20/18 Q1019 RMK CB TO ALL/D
TAF FQLC 201000Z 2012/2112 27011KT 9999 SCT012 BKN018 FEW025CB 
     PROB30 
     TEMPO 2012/2018 3000 TSRA SCT010 OVC015 FEW018CB 
     BECMG 2018/2020 VRB03KT 
     BECMG 2100/2102 12010KT 
     BECMG 2106/2108 32010KT TX25/2013Z TN17/2103Z
       
FQMA 201600Z 20021G32KT 9999 FEW025 26/11 Q1020 NOSIG
TAF FQMA 201000Z 2012/2118 15025G35KT 9999 BKN020 
     PROB30 
     TEMPO 2012/2015 5000 -RADZ SCT015 BKN020 
     BECMG 2018/2020 23020G30KT 
     BECMG 2106/2108 16013KT TX29/2013Z TN20/2103Z
       
TAF FQNC 201000Z 2012/2112 27010KT 9999 BKN020 FEW025CB 
     PROB40 
     TEMPO 2012/2018 5000 -TSRA SCT010 BKN018 FEW022CB 
     BECMG 2018/2020 VRB03KT 
     BECMG 2100/2102 24012KT TX33/2013Z TN23/2103Z
       
FQNP 201600Z /////KT 9999 BKN020 BKN100 25/23 Q1010
TAF FQNP 201000Z 2012/2118 23010KT 9999 BKN020 FEW025CB 
     PROB40 
     TEMPO 2012/2018 5000 -TSRA SCT010 BKN018 FEW022CB 
     BECMG 2018/2020 VRB03KT 
     BECMG 2100/2102 24012KT TX32/2013Z TN23/2103Z
       
FQPB 201600Z 03004KT 9999 SCT020 FEW025CB BKN100 BKN/// 28/24 Q1008 RMK CB TO NE/NW/N
TAF FQPB 201000Z 2012/2112 05012KT 9999 BKN020 FEW030CB 
     PROB40 
     TEMPO 2012/2018 3000 TSRA SCT010 BKN020 FEW025CB 
     BECMG 2018/2020 33008KT 
     BECMG 2100/2102 26010KT 
     BECMG 2106/2108 32010KT TX33/2013Z TN23/2103Z
       
TAF FQQL 201000Z 2012/2112 22035G45KT 9999 BKN020 FEW025CB 
     PROB30 
     TEMPO 2012/2018 5000 -TSRA SCT012 BKN018 FEW025CB 
     PROB30 
     TEMPO 3000 SHRA SCT010 BKN018 FEW024CB 
     BECMG 2106/2108 28025G35KT TX30/2013Z TN25/2103Z
       
FQTT 201500Z 00000KT 9999 BKN020 FEW025CB BKN100 28/23 Q1011 RMK RESH CB TO NW/N/E
TAF FQTT 201000Z 2012/2112 12012KT 9999 BKN018 FEW030CB 
     PROB30 
     TEMPO 2012/2018 4000 SHRA SCT010 OVC020 FEW025CB //END PART 01//
       
FQVL 201600Z 20018KT 9999 FEW010 BKN020 BKN025 25/19 Q1012
TAF FQVL 201000Z 2012/2112 23025G35KT 9999 SCT015 BKN020 FEW030CB 
     PROB40 
     TEMPO 2012/2018 5000 TSRA SCT010 OVC017 FEW025CB 
     FM201200 14030G40KT 3000 SHRA SCT008 OVC015 FEW020CB TX27/2013Z TN24/2103Z